Time;durP1;ratioP1;P1;durP2;ratioP2;P2;SDS_P1;SDS_P2;PMS_P1;PMS_P2;Temp;Humidity;BMP_temperature;BMP_pressure;BME280_temperature;BME280_humidity;BME280_pressure;Samples;Min_cycle;Max_cycle;Signal;HPM_P1;HPM_P2
2023/04/10 00:00:01;;;;;;;5.88;1.08;;;;;;;10.36;92.90;99812.38;5051130;28;20049;-41
2023/04/10 00:02:31;;;;;;;3.03;0.93;;;;;;;10.31;92.72;99823.75;5049333;28;20079;-44
2023/04/10 00:04:59;;;;;;;3.70;1.08;;;;;;;10.26;92.57;99817.72;5049223;28;20037;-42
2023/04/10 00:07:26;;;;;;;6.30;1.20;;;;;;;10.22;92.37;99822.34;5049499;28;20045;-43
2023/04/10 00:09:53;;;;;;;1.30;0.60;;;;;;;10.16;92.09;99824.66;5031834;28;20088;-42
2023/04/10 00:12:20;;;;;;;3.42;0.80;;;;;;;10.12;91.96;99826.53;5049334;28;20079;-43
2023/04/10 00:14:46;;;;;;;6.13;1.20;;;;;;;10.07;91.85;99826.78;5047677;28;20045;-46
2023/04/10 00:17:13;;;;;;;8.50;1.40;;;;;;;10.01;91.66;99819.13;5049025;28;20051;-42
2023/04/10 00:19:40;;;;;;;9.90;1.65;;;;;;;9.95;91.83;99824.19;5049315;28;20049;-46
2023/04/10 00:22:07;;;;;;;8.73;2.17;;;;;;;9.91;91.82;99826.03;5045497;28;20487;-43
2023/04/10 00:24:33;;;;;;;3.00;1.08;;;;;;;9.90;91.74;99820.91;5053576;28;20040;-41
2023/04/10 00:27:00;;;;;;;4.57;1.27;;;;;;;9.89;91.69;99825.63;5044477;28;20051;-41
2023/04/10 00:29:27;;;;;;;3.22;0.80;;;;;;;9.87;91.68;99833.47;5045122;28;20052;-47
2023/04/10 00:31:54;;;;;;;9.27;1.25;;;;;;;9.86;91.66;99829.09;5042420;28;20403;-43
2023/04/10 00:34:20;;;;;;;1.83;0.80;;;;;;;9.83;91.53;99821.53;5047981;28;20071;-43
2023/04/10 00:36:47;;;;;;;3.33;0.80;;;;;;;9.80;91.43;99825.81;5045823;28;20083;-47
2023/04/10 00:39:14;;;;;;;5.53;1.40;;;;;;;9.75;91.29;99828.06;5050862;28;20139;-43
2023/04/10 00:41:41;;;;;;;8.25;1.20;;;;;;;9.73;91.36;99835.94;5042181;28;20057;-46
2023/04/10 00:44:08;;;;;;;5.68;1.33;;;;;;;9.69;91.47;99837.78;5044934;28;20065;-42
2023/04/10 00:46:38;;;;;;;5.55;1.10;;;;;;;9.66;91.46;99833.00;5046079;28;20053;-44
2023/04/10 00:49:05;;;;;;;6.07;1.10;;;;;;;9.64;91.27;99818.75;5029653;28;20049;-42
2023/04/10 00:51:32;;;;;;;6.10;1.42;;;;;;;9.61;91.38;99819.47;5027619;28;20332;-44
2023/04/10 00:54:01;;;;;;;4.03;0.88;;;;;;;9.61;91.59;99825.00;5045733;28;20355;-44
2023/04/10 00:56:32;;;;;;;6.80;1.27;;;;;;;9.58;91.46;99820.97;5045420;28;20055;-42
2023/04/10 00:58:59;;;;;;;9.63;1.60;;;;;;;9.58;91.54;99814.66;5040878;28;20065;-43
2023/04/10 01:01:26;;;;;;;5.85;1.25;;;;;;;9.55;91.45;99815.38;5052894;28;20059;-44
2023/04/10 01:03:53;;;;;;;8.40;1.48;;;;;;;9.53;91.55;99799.16;5048670;28;20569;-43
2023/04/10 01:06:37;;;;;;;15.38;2.10;;;;;;;9.52;91.63;99807.81;5048453;28;20402;-42
2023/04/10 01:09:13;;;;;;;4.60;1.77;;;;;;;9.51;91.45;99797.91;5044663;28;20037;-42
2023/04/10 01:11:54;;;;;;;5.32;1.48;;;;;;;9.49;91.55;99789.19;5041591;28;20099;-42
2023/04/10 01:14:33;;;;;;;3.58;1.27;;;;;;;9.50;91.65;99790.81;5037243;28;20387;-43
2023/04/10 01:17:08;;;;;;;13.45;1.73;;;;;;;9.49;91.53;99784.47;5048473;28;20048;-42
2023/04/10 01:19:50;;;;;;;7.03;1.42;;;;;;;9.46;91.46;99787.16;5049377;28;20072;-48
2023/04/10 01:22:19;;;;;;;;;;;;;;;9.47;91.46;99780.47;5035176;28;20144;-42
2023/04/10 01:25:11;;;;;;;8.30;1.80;;;;;;;9.43;91.31;99774.06;5048680;28;19947;-42
2023/04/10 01:28:03;;;;;;;8.88;1.60;;;;;;;9.42;91.19;99766.94;5056237;28;20137;-45
2023/04/10 01:30:34;;;;;;;15.98;2.22;;;;;;;9.39;91.11;99768.47;5044269;28;20041;-42
2023/04/10 01:33:03;;;;;;;6.72;1.30;;;;;;;9.37;91.17;99765.25;5042562;28;20129;-42
2023/04/10 01:35:32;;;;;;;6.82;1.52;;;;;;;9.38;91.24;99763.28;5044662;28;20775;-42
2023/04/10 01:38:02;;;;;;;5.68;1.45;;;;;;;9.38;91.16;99760.53;5047725;28;20479;-49
2023/04/10 01:40:31;;;;;;;4.13;1.63;;;;;;;9.40;91.29;99763.75;5027576;28;20048;-46
2023/04/10 01:43:00;;;;;;;6.00;1.42;;;;;;;9.41;91.17;99763.38;5044605;28;20041;-42
2023/04/10 01:45:27;;;;;;;7.45;1.48;;;;;;;9.45;91.11;99763.47;5042139;28;20041;-43
2023/04/10 01:47:55;;;;;;;7.25;1.73;;;;;;;9.51;91.25;99756.47;5037800;28;20045;-42
2023/04/10 01:50:23;;;;;;;5.15;1.30;;;;;;;9.51;91.15;99762.81;5037420;28;20048;-43
2023/04/10 01:52:55;;;;;;;4.97;1.10;;;;;;;9.54;90.93;99751.03;5046171;28;20486;-42
2023/04/10 01:55:23;;;;;;;4.15;1.38;;;;;;;9.56;91.01;99753.41;5047351;28;20052;-45
2023/04/10 01:57:50;;;;;;;6.85;1.30;;;;;;;9.57;90.94;99757.78;5042209;28;20479;-44
2023/04/10 02:00:17;;;;;;;5.63;0.93;;;;;;;9.57;90.80;99757.78;5025178;28;20047;-42
2023/04/10 02:02:44;;;;;;;5.18;1.30;;;;;;;9.60;90.79;99751.56;5051319;28;20045;-42
2023/04/10 02:05:11;;;;;;;5.47;1.38;;;;;;;9.58;90.82;99748.34;5051602;28;20053;-42
2023/04/10 02:07:41;;;;;;;12.50;2.20;;;;;;;9.57;90.92;99743.97;5051689;28;20049;-42
2023/04/10 02:10:10;;;;;;;4.30;1.40;;;;;;;9.58;90.86;99749.13;5033989;28;20049;-42
2023/04/10 02:13:04;;;;;;;3.92;1.15;;;;;;;9.58;90.91;99754.66;5033572;28;20056;-42
2023/04/10 02:15:33;;;;;;;4.38;1.20;;;;;;;9.58;90.77;99745.59;5050968;28;20751;-42
2023/04/10 02:18:03;;;;;;;5.63;1.40;;;;;;;9.58;90.83;99742.84;5055636;28;20071;-43
2023/04/10 02:20:31;;;;;;;4.28;1.02;;;;;;;9.55;90.71;99743.56;5042809;28;20056;-42
2023/04/10 02:23:02;;;;;;;5.18;1.55;;;;;;;9.54;90.59;99736.41;5048970;28;20053;-46
2023/04/10 02:25:33;;;;;;;8.70;2.00;;;;;;;9.51;90.76;99737.94;5039945;28;20044;-43
2023/04/10 02:28:07;;;;;;;13.23;2.22;;;;;;;9.51;90.77;99731.59;5054855;28;20504;-43
2023/04/10 02:30:34;;;;;;;7.90;2.03;;;;;;;9.51;90.74;99729.66;5051103;28;20071;-43
2023/04/10 02:33:01;;;;;;;6.25;1.73;;;;;;;9.50;90.60;99713.44;5047594;28;20148;-42
2023/04/10 02:35:28;;;;;;;5.60;1.50;;;;;;;9.48;90.66;99726.81;5044985;28;20053;-44
2023/04/10 02:37:55;;;;;;;11.88;2.20;;;;;;;9.46;90.82;99718.88;5043550;28;20063;-50
2023/04/10 02:40:22;;;;;;;5.97;2.08;;;;;;;9.48;90.62;99729.56;5027978;28;21237;-50
2023/04/10 02:42:48;;;;;;;6.55;1.70;;;;;;;9.46;90.65;99720.84;5025234;28;20076;-42
2023/04/10 02:45:15;;;;;;;7.50;1.45;;;;;;;9.46;90.57;99723.59;5025855;28;20099;-48
2023/04/10 02:47:42;;;;;;;4.95;1.35;;;;;;;9.46;90.63;99729.94;5028146;28;20061;-48
2023/04/10 02:50:10;;;;;;;10.82;2.28;;;;;;;9.47;90.62;99739.03;5023958;28;20080;-51
2023/04/10 02:52:37;;;;;;;10.48;2.20;;;;;;;9.46;90.65;99735.47;5023749;28;20538;-42
2023/04/10 02:55:04;;;;;;;9.68;2.30;;;;;;;9.49;90.43;99722.88;5030062;28;20056;-42
2023/04/10 02:57:33;;;;;;;10.35;2.22;;;;;;;9.50;90.43;99718.97;5023078;28;20059;-46
2023/04/10 03:00:01;;;;;;;7.80;2.00;;;;;;;9.50;90.49;99725.31;5023795;28;20045;-43
2023/04/10 03:02:30;;;;;;;7.57;1.83;;;;;;;9.51;90.55;99715.03;5082372;22;20061;-45
2023/04/10 03:04:59;;;;;;;4.65;1.92;;;;;;;9.51;90.53;99717.78;5050684;28;20409;-44
2023/04/10 03:07:26;;;;;;;12.35;2.55;;;;;;;9.50;90.58;99711.50;5063743;28;20410;-46
2023/04/10 03:09:52;;;;;;;9.60;2.22;;;;;;;9.50;90.50;99714.25;5063179;28;20048;-44
2023/04/10 03:12:19;;;;;;;6.85;1.95;;;;;;;9.53;90.61;99719.03;5056881;28;20447;-48
2023/04/10 03:14:46;;;;;;;11.02;2.53;;;;;;;9.56;90.53;99714.75;5057326;28;20445;-45
2023/04/10 03:17:12;;;;;;;20.05;4.10;;;;;;;9.56;90.53;99728.56;5056322;28;20118;-44
2023/04/10 03:19:39;;;;;;;10.65;2.45;;;;;;;9.57;90.41;99716.34;5066535;28;20072;-44
2023/04/10 03:22:06;;;;;;;8.68;1.80;;;;;;;9.57;90.46;99706.09;5044518;28;20045;-44
2023/04/10 03:24:32;;;;;;;11.52;3.17;;;;;;;9.56;90.51;99714.75;5055983;28;20051;-45
2023/04/10 03:27:00;;;;;;;15.15;2.13;;;;;;;9.55;90.57;99715.91;5057325;28;20394;-44
2023/04/10 03:29:27;;;;;;;12.35;2.42;;;;;;;9.56;90.45;99717.50;5051151;28;20460;-45
2023/04/10 03:31:53;;;;;;;11.27;3.42;;;;;;;9.54;90.46;99715.13;5057433;28;20052;-44
2023/04/10 03:34:20;;;;;;;15.57;2.33;;;;;;;9.53;90.41;99707.19;5070185;28;20086;-44
2023/04/10 03:36:47;;;;;;;12.25;4.60;;;;;;;9.51;90.47;99713.06;5050850;28;20059;-46
2023/04/10 03:39:14;;;;;;;13.40;3.17;;;;;;;9.48;90.31;99707.47;5064333;28;20131;-46
2023/04/10 03:41:40;;;;;;;8.60;1.88;;;;;;;9.43;90.38;99702.22;5069898;28;20051;-44
2023/04/10 03:44:07;;;;;;;14.18;2.38;;;;;;;9.37;90.45;99717.50;5069469;28;20514;-46
2023/04/10 03:46:34;;;;;;;10.07;2.15;;;;;;;9.34;90.51;99694.19;5060841;28;20273;-44
2023/04/10 03:49:00;;;;;;;7.00;1.90;;;;;;;9.34;90.42;99698.91;5051185;28;20041;-45
2023/04/10 03:51:27;;;;;;;9.05;2.70;;;;;;;9.33;90.47;99686.22;5060631;28;20102;-45
2023/04/10 03:53:54;;;;;;;10.48;2.28;;;;;;;9.35;90.46;99700.47;5063729;28;20049;-45
2023/04/10 03:56:21;;;;;;;15.82;3.17;;;;;;;9.33;90.53;99700.84;5043243;28;20048;-44
2023/04/10 03:58:48;;;;;;;7.25;1.67;;;;;;;9.33;90.44;99698.09;5045440;28;20410;-48
2023/04/10 04:01:15;;;;;;;10.73;2.17;;;;;;;9.33;90.44;99703.63;5058198;28;20413;-44
2023/04/10 04:03:41;;;;;;;8.68;1.88;;;;;;;9.32;90.25;99696.47;5081921;28;20040;-45
2023/04/10 04:06:08;;;;;;;12.68;2.70;;;;;;;9.30;90.24;99698.81;5078187;28;20051;-49
2023/04/10 04:08:37;;;;;;;10.63;2.75;;;;;;;9.25;90.18;99690.00;5089114;28;20507;-44
2023/04/10 04:11:04;;;;;;;11.32;1.90;;;;;;;9.21;90.11;99689.16;5067000;28;20042;-44
2023/04/10 04:13:31;;;;;;;14.93;3.38;;;;;;;9.14;90.11;99684.25;5074420;28;20048;-45
2023/04/10 04:15:58;;;;;;;13.73;3.00;;;;;;;9.08;90.15;99686.50;5071471;28;20083;-45
2023/04/10 04:18:24;;;;;;;12.05;2.15;;;;;;;9.03;90.13;99684.03;5088871;28;20051;-45
2023/04/10 04:20:51;;;;;;;9.65;2.53;;;;;;;8.98;90.29;99670.50;5088990;28;20517;-44
2023/04/10 04:23:18;;;;;;;12.48;3.25;;;;;;;8.94;90.23;99680.69;5085706;28;20084;-45
2023/04/10 04:25:45;;;;;;;14.52;2.85;;;;;;;8.90;90.21;99678.97;5075913;28;20075;-48
2023/04/10 04:28:12;;;;;;;9.48;2.05;;;;;;;8.87;90.29;99679.72;5079707;28;20040;-44
2023/04/10 04:30:39;;;;;;;11.52;2.20;;;;;;;8.83;90.28;99673.31;5085352;28;20058;-44
2023/04/10 04:33:05;;;;;;;5.57;1.65;;;;;;;8.79;90.23;99675.97;5088050;28;20135;-46
2023/04/10 04:35:32;;;;;;;9.32;2.00;;;;;;;8.75;90.29;99668.78;5078853;28;20452;-45
2023/04/10 04:37:59;;;;;;;9.82;2.55;;;;;;;8.72;90.37;99670.28;5085818;28;20432;-45
2023/04/10 04:40:26;;;;;;;9.80;4.05;;;;;;;8.70;90.24;99669.84;5088876;28;20044;-46
2023/04/10 04:42:52;;;;;;;17.25;5.22;;;;;;;8.67;90.29;99659.53;5085977;28;20044;-44
2023/04/10 04:45:20;;;;;;;8.68;1.80;;;;;;;8.61;90.29;99657.41;5078851;28;20047;-47
2023/04/10 04:47:47;;;;;;;6.97;2.20;;;;;;;8.55;90.34;99663.19;5081739;28;20032;-44
2023/04/10 04:50:14;;;;;;;8.55;2.25;;;;;;;8.51;90.44;99662.31;5079912;28;20055;-51
2023/04/10 04:52:41;;;;;;;8.10;1.80;;;;;;;8.50;90.45;99659.91;5088201;28;20428;-45
2023/04/10 04:55:08;;;;;;;8.98;2.47;;;;;;;8.46;90.52;99650.75;5087938;28;20059;-45
2023/04/10 04:57:35;;;;;;;10.27;1.65;;;;;;;8.44;90.57;99655.84;5087132;28;20054;-44
2023/04/10 05:00:03;;;;;;;12.93;2.63;;;;;;;8.41;90.58;99646.31;5078498;28;20044;-44
2023/04/10 05:02:29;;;;;;;7.43;2.13;;;;;;;8.39;90.66;99643.09;5077351;28;20426;-44
2023/04/10 05:04:56;;;;;;;10.55;1.90;;;;;;;8.39;90.59;99645.06;5072073;28;20054;-45
2023/04/10 05:07:23;;;;;;;13.60;2.35;;;;;;;8.36;90.67;99641.06;5074679;28;20044;-45
2023/04/10 05:09:50;;;;;;;12.93;1.90;;;;;;;8.36;90.62;99656.81;5088681;28;20056;-48
2023/04/10 05:12:17;;;;;;;11.88;2.92;;;;;;;8.34;90.92;99646.13;5088591;28;20401;-44
2023/04/10 05:14:44;;;;;;;13.30;2.08;;;;;;;8.35;90.94;99646.94;5083917;28;20113;-44
2023/04/10 05:17:11;;;;;;;14.82;2.72;;;;;;;8.36;91.00;99649.34;5082899;28;20036;-45
2023/04/10 05:19:38;;;;;;;12.88;3.47;;;;;;;8.38;90.85;99646.22;5081382;28;20086;-45
2023/04/10 05:22:05;;;;;;;16.20;2.03;;;;;;;8.37;91.14;99650.94;5071278;28;20059;-45
2023/04/10 05:24:31;;;;;;;8.85;2.88;;;;;;;8.37;90.95;99650.94;5065944;28;20086;-45
2023/04/10 05:26:58;;;;;;;10.75;2.28;;;;;;;8.37;91.08;99655.66;5092326;28;20659;-45
2023/04/10 05:29:25;;;;;;;10.80;1.67;;;;;;;8.37;91.17;99658.41;5074109;28;20056;-51
2023/04/10 05:31:52;;;;;;;13.30;2.38;;;;;;;8.35;91.15;99655.22;5075432;28;20486;-45
2023/04/10 05:34:19;;;;;;;9.50;1.95;;;;;;;8.34;91.24;99659.13;5078526;28;20072;-44
2023/04/10 05:36:46;;;;;;;9.75;2.33;;;;;;;8.34;91.40;99653.63;5086787;28;20522;-49
2023/04/10 05:39:14;;;;;;;15.20;2.50;;;;;;;8.36;91.42;99648.53;5093115;28;20393;-44
2023/04/10 05:41:41;;;;;;;9.38;1.95;;;;;;;8.37;91.42;99647.38;5090883;28;20047;-44
2023/04/10 05:44:08;;;;;;;9.30;2.08;;;;;;;8.40;91.48;99652.19;5072713;28;20119;-44
2023/04/10 05:46:34;;;;;;;15.25;2.85;;;;;;;8.40;91.32;99647.47;5082484;28;20386;-44
2023/04/10 05:49:02;;;;;;;10.88;2.60;;;;;;;8.40;91.52;99649.41;5081597;28;20861;-48
2023/04/10 05:51:29;;;;;;;14.57;2.45;;;;;;;8.40;91.50;99639.19;5076424;28;20053;-44
2023/04/10 05:53:56;;;;;;;13.82;2.85;;;;;;;8.44;91.49;99636.53;5084927;28;20496;-44
2023/04/10 05:56:23;;;;;;;9.20;1.83;;;;;;;8.45;91.47;99636.16;5080119;28;20090;-45
2023/04/10 05:58:49;;;;;;;11.48;2.38;;;;;;;8.47;91.38;99646.84;5084137;28;20051;-47
2023/04/10 06:01:16;;;;;;;13.88;2.15;;;;;;;8.47;91.46;99639.34;5087709;28;20037;-44
2023/04/10 06:03:43;;;;;;;10.40;2.13;;;;;;;8.50;91.64;99644.16;5081473;28;20053;-44
2023/04/10 06:06:09;;;;;;;8.02;2.35;;;;;;;8.53;91.56;99642.63;5091715;28;20048;-45
2023/04/10 06:08:36;;;;;;;12.60;2.22;;;;;;;8.54;91.49;99649.78;5085279;28;20426;-45
2023/04/10 06:11:03;;;;;;;5.10;1.80;;;;;;;8.54;91.53;99638.72;5082335;28;20496;-44
2023/04/10 06:13:31;;;;;;;12.82;2.10;;;;;;;8.58;91.60;99639.59;5081478;28;20045;-46
2023/04/10 06:15:57;;;;;;;8.35;2.25;;;;;;;8.63;91.55;99647.59;5087351;28;20040;-48
2023/04/10 06:18:24;;;;;;;9.20;2.85;;;;;;;8.68;91.60;99638.28;5091260;28;20064;-48
2023/04/10 06:20:51;;;;;;;10.85;2.30;;;;;;;8.71;91.54;99640.31;5081509;28;20040;-44
2023/04/10 06:23:18;;;;;;;12.18;1.85;;;;;;;8.74;91.37;99648.66;5087892;28;20052;-45
2023/04/10 06:25:46;;;;;;;11.95;3.22;;;;;;;8.76;91.32;99640.84;5080340;28;20040;-45
2023/04/10 06:28:13;;;;;;;7.70;1.65;;;;;;;8.79;91.32;99642.84;5091477;28;20040;-44
2023/04/10 06:30:40;;;;;;;14.60;1.67;;;;;;;8.82;91.25;99644.09;5091152;28;20079;-49
2023/04/10 06:33:06;;;;;;;13.45;3.03;;;;;;;8.85;91.15;99649.69;5085676;28;20569;-44
2023/04/10 06:35:35;;;;;;;14.35;2.00;;;;;;;8.88;91.00;99654.50;5074880;28;20107;-45
2023/04/10 06:38:03;;;;;;;6.18;1.77;;;;;;;8.89;90.70;99642.31;5089353;28;20048;-44
2023/04/10 06:40:30;;;;;;;11.70;2.10;;;;;;;8.91;90.74;99655.75;5066794;28;20045;-45
2023/04/10 06:42:57;;;;;;;14.10;2.20;;;;;;;8.90;90.75;99649.41;5081741;28;20040;-44
2023/04/10 06:45:23;;;;;;;10.27;2.05;;;;;;;8.90;90.79;99654.13;5091036;28;20044;-44
2023/04/10 06:47:50;;;;;;;12.77;2.05;;;;;;;8.91;90.67;99653.78;5091302;28;20083;-44
2023/04/10 06:50:17;;;;;;;6.63;1.40;;;;;;;8.92;90.67;99658.13;5090655;28;20048;-44
2023/04/10 06:52:45;;;;;;;12.23;1.80;;;;;;;8.94;90.60;99657.78;5075735;28;20059;-44
2023/04/10 06:55:11;;;;;;;8.85;1.48;;;;;;;8.93;90.38;99665.25;5091161;28;20048;-44
2023/04/10 06:57:39;;;;;;;15.52;2.58;;;;;;;8.94;90.33;99657.78;5090743;28;20442;-47
2023/04/10 07:00:06;;;;;;;8.25;1.30;;;;;;;8.94;90.31;99660.53;5089761;28;20119;-46
2023/04/10 07:02:33;;;;;;;7.95;1.73;;;;;;;8.94;90.38;99660.53;5074145;28;20143;-42
2023/04/10 07:05:00;;;;;;;5.43;1.30;;;;;;;8.91;90.26;99651.03;5057334;28;20072;-44
2023/04/10 07:07:28;;;;;;;8.50;1.95;;;;;;;8.88;90.18;99654.50;5056642;28;20048;-42
2023/04/10 07:09:56;;;;;;;15.07;2.40;;;;;;;8.86;90.30;99656.84;5070706;28;20051;-46
2023/04/10 07:12:23;;;;;;;13.25;2.28;;;;;;;8.82;90.31;99647.66;5039006;28;20148;-42
2023/04/10 07:14:50;;;;;;;10.68;1.90;;;;;;;8.80;90.46;99647.22;5047544;28;20052;-42
2023/04/10 07:17:16;;;;;;;11.27;1.83;;;;;;;8.76;90.35;99656.59;5061727;28;20044;-43
2023/04/10 07:19:43;;;;;;;11.00;1.70;;;;;;;8.74;90.56;99656.13;5056118;28;20402;-42
2023/04/10 07:22:10;;;;;;;6.63;1.23;;;;;;;8.71;90.56;99645.84;5068144;28;20048;-42
2023/04/10 07:24:37;;;;;;;4.25;1.45;;;;;;;8.64;90.69;99649.22;5056484;28;20073;-42
2023/04/10 07:27:03;;;;;;;4.63;1.13;;;;;;;8.61;90.71;99655.44;5061179;28;20049;-43
2023/04/10 07:29:30;;;;;;;10.18;2.25;;;;;;;8.58;90.73;99661.66;5064942;28;20041;-42
2023/04/10 07:31:57;;;;;;;3.85;1.02;;;;;;;8.54;90.84;99661.59;5049682;28;20041;-45
2023/04/10 07:34:24;;;;;;;5.45;1.40;;;;;;;8.53;90.89;99656.44;5037643;28;20059;-42
2023/04/10 07:36:51;;;;;;;3.25;1.10;;;;;;;8.50;90.98;99657.16;5058039;28;20079;-42
2023/04/10 07:39:18;;;;;;;3.97;1.20;;;;;;;8.43;90.96;99649.50;5053962;28;20135;-42
2023/04/10 07:41:45;;;;;;;4.93;1.90;;;;;;;8.38;90.99;99651.75;5069049;28;20401;-43
2023/04/10 07:44:12;;;;;;;2.10;1.23;;;;;;;8.33;91.13;99646.50;5050681;28;20055;-43
2023/04/10 07:46:39;;;;;;;5.45;1.33;;;;;;;8.29;91.32;99648.34;5050082;28;20059;-42
2023/04/10 07:49:05;;;;;;;8.10;1.98;;;;;;;8.26;91.35;99643.53;5049600;28;20044;-42
2023/04/10 07:51:34;;;;;;;9.23;1.40;;;;;;;8.24;91.56;99646.63;5050004;28;20115;-42
2023/04/10 07:54:02;;;;;;;4.90;1.33;;;;;;;8.23;91.33;99638.75;5062605;28;20079;-42
2023/04/10 07:56:32;;;;;;;11.57;2.50;;;;;;;8.22;91.48;99642.63;5049381;28;20103;-43
2023/04/10 07:59:02;;;;;;;5.80;0.95;;;;;;;8.20;91.71;99644.97;5065455;28;20050;-43
2023/04/10 08:01:28;;;;;;;4.55;1.00;;;;;;;8.15;91.50;99640.53;5068314;28;20332;-49
2023/04/10 08:03:55;;;;;;;5.85;1.75;;;;;;;8.14;91.81;99644.44;5089132;28;20405;-42
2023/04/10 08:06:22;;;;;;;2.90;1.15;;;;;;;8.14;91.85;99640.84;5078887;28;20127;-42
2023/04/10 08:08:51;;;;;;;2.05;0.90;;;;;;;8.14;92.08;99660.97;5064822;28;20410;-44
2023/04/10 08:11:26;;;;;;;7.90;1.85;;;;;;;8.13;92.04;99639.28;5071196;28;20048;-42
2023/04/10 08:13:55;;;;;;;4.07;0.93;;;;;;;8.13;92.12;99637.28;5083944;28;20045;-43
2023/04/10 08:16:26;;;;;;;4.95;1.77;;;;;;;8.12;92.06;99643.19;5082376;28;20455;-41
2023/04/10 08:18:54;;;;;;;10.10;1.83;;;;;;;8.13;91.92;99640.06;5082013;28;20490;-42
2023/04/10 08:21:22;;;;;;;3.35;0.85;;;;;;;8.15;92.24;99634.19;5083047;28;20090;-42
2023/04/10 08:23:54;;;;;;;7.45;1.13;;;;;;;8.13;92.27;99631.78;5084347;28;20052;-42
2023/04/10 08:26:21;;;;;;;5.50;1.33;;;;;;;8.15;92.30;99631.44;5083836;28;20040;-42
2023/04/10 08:28:49;;;;;;;6.07;1.30;;;;;;;8.19;92.46;99632.31;5089242;28;20051;-43
2023/04/10 08:31:18;;;;;;;1.90;0.80;;;;;;;8.22;92.58;99629.66;5089400;28;20132;-41
2023/04/10 08:33:45;;;;;;;3.80;0.90;;;;;;;8.25;92.53;99628.94;5089302;28;20101;-42
2023/04/10 08:36:14;;;;;;;4.63;1.20;;;;;;;8.31;92.74;99635.81;5089380;28;20436;-42
2023/04/10 08:38:45;;;;;;;4.53;1.10;;;;;;;8.37;92.78;99633.56;5077804;28;20043;-43
2023/04/10 08:41:17;;;;;;;2.38;0.60;;;;;;;8.44;92.85;99636.53;5083102;28;20041;-42
2023/04/10 08:43:45;;;;;;;9.02;1.30;;;;;;;8.45;92.81;99641.69;5080420;28;20052;-42
2023/04/10 08:46:15;;;;;;;4.57;1.60;;;;;;;8.46;92.91;99636.97;5089213;28;20506;-44
2023/04/10 08:48:52;;;;;;;2.47;0.93;;;;;;;8.47;92.84;99628.31;5076469;28;20048;-42
2023/04/10 08:51:21;;;;;;;2.72;0.80;;;;;;;8.53;92.95;99634.38;5068670;28;20072;-42
2023/04/10 08:53:58;;;;;;;4.03;1.23;;;;;;;8.55;93.05;99629.31;5083042;28;20124;-43
2023/04/10 08:56:25;;;;;;;8.88;1.42;;;;;;;8.59;93.09;99630.19;5088990;28;20054;-43
2023/04/10 08:58:52;;;;;;;4.47;1.17;;;;;;;8.64;93.05;99624.38;5074920;28;20064;-43
2023/04/10 09:01:20;;;;;;;2.97;0.90;;;;;;;8.71;92.95;99621.78;5081584;28;20505;-47
2023/04/10 09:03:47;;;;;;;2.03;1.13;;;;;;;8.76;92.74;99623.47;5085954;28;20036;-45
2023/04/10 09:06:14;;;;;;;2.28;0.60;;;;;;;8.74;92.73;99620.25;5068264;28;20513;-42
2023/04/10 09:08:41;;;;;;;1.23;0.55;;;;;;;8.75;92.72;99614.38;5067526;28;20044;-42
2023/04/10 09:11:08;;;;;;;2.38;0.63;;;;;;;8.72;92.50;99606.81;5088557;28;20451;-46
2023/04/10 09:13:42;;;;;;;1.65;0.43;;;;;;;8.85;92.70;99611.06;5070690;28;20097;-43
2023/04/10 09:16:10;;;;;;;1.02;0.57;;;;;;;9.05;92.35;99603.59;5083917;28;20028;-42
2023/04/10 09:18:47;;;;;;;2.13;0.63;;;;;;;9.39;92.42;99612.97;5088473;28;20055;-43
2023/04/10 09:21:16;;;;;;;2.05;0.60;;;;;;;10.26;91.49;99610.25;5088117;28;20270;-44
2023/04/10 09:23:44;;;;;;;2.03;0.50;;;;;;;10.95;90.22;99617.22;5084744;28;20044;-46
2023/04/10 09:26:28;;;;;;;4.30;0.50;;;;;;;11.66;88.71;99612.53;5085638;28;20107;-44
2023/04/10 09:29:05;;;;;;;1.40;0.73;;;;;;;11.75;88.09;99610.28;5084121;28;20044;-43
2023/04/10 09:31:34;;;;;;;1.63;0.75;;;;;;;11.69;88.96;99611.81;5084390;28;20045;-45
2023/04/10 09:34:09;;;;;;;0.80;0.20;;;;;;;11.80;89.02;99609.94;5082432;28;20138;-44
2023/04/10 09:36:36;;;;;;;3.75;0.50;;;;;;;12.36;88.86;99596.59;5088323;28;20101;-43
2023/04/10 09:39:04;;;;;;;1.35;0.40;;;;;;;13.05;86.50;99605.72;5069563;28;20502;-50
2023/04/10 09:41:30;;;;;;;0.95;0.20;;;;;;;13.06;84.30;99600.97;5088672;28;20048;-44
2023/04/10 09:44:09;;;;;;;1.38;0.47;;;;;;;12.79;85.01;99594.88;5088176;28;20054;-46
2023/04/10 09:46:36;;;;;;;5.15;0.73;;;;;;;13.27;84.75;99596.34;5087439;28;20062;-45
2023/04/10 09:49:06;;;;;;;0.35;0.35;;;;;;;13.64;81.39;99598.84;5071688;28;20102;-44
2023/04/10 09:51:34;;;;;;;1.20;0.40;;;;;;;13.31;81.56;99596.38;5082838;28;20135;-45
2023/04/10 09:54:02;;;;;;;2.03;0.52;;;;;;;13.09;81.62;99597.44;5088540;28;20058;-45
2023/04/10 09:56:30;;;;;;;1.20;0.55;;;;;;;12.70;81.94;99586.09;5087834;28;20051;-45
2023/04/10 09:58:58;;;;;;;1.40;0.70;;;;;;;12.91;83.34;99593.75;5088242;28;20052;-44
2023/04/10 10:01:33;;;;;;;0.98;0.50;;;;;;;13.97;80.88;99604.09;5079092;28;20048;-45
2023/04/10 10:04:03;;;;;;;2.22;0.50;;;;;;;14.57;78.06;99597.75;5085482;28;20445;-46
2023/04/10 10:06:31;;;;;;;0.50;0.50;;;;;;;14.73;76.41;99595.34;5059196;28;20506;-45
2023/04/10 10:09:03;;;;;;;2.63;0.38;;;;;;;14.27;77.13;99595.34;5068006;28;20123;-44
2023/04/10 10:11:33;;;;;;;4.95;0.47;;;;;;;14.80;77.11;99598.13;5088560;28;20094;-45
2023/04/10 10:14:12;;;;;;;1.17;0.40;;;;;;;14.92;74.79;99594.91;5091566;28;20052;-47
2023/04/10 10:16:45;;;;;;;4.50;1.20;;;;;;;14.14;74.78;99593.38;5086744;28;20044;-44
2023/04/10 10:19:20;;;;;;;1.38;0.52;;;;;;;13.34;75.74;99592.81;5091725;28;20054;-46
2023/04/10 10:21:47;;;;;;;1.95;1.15;;;;;;;12.72;76.77;99600.41;5091395;28;20032;-44
2023/04/10 10:24:16;;;;;;;3.67;0.60;;;;;;;12.21;77.43;99590.09;5079938;28;20098;-42
2023/04/10 10:26:43;;;;;;;2.53;0.45;;;;;;;11.92;78.60;99582.72;5084102;28;20036;-45
2023/04/10 10:29:13;;;;;;;2.55;0.55;;;;;;;11.96;79.24;99577.22;5074105;28;20116;-43
2023/04/10 10:31:41;;;;;;;4.65;0.60;;;;;;;11.94;78.79;99579.59;5072173;28;20039;-43
2023/04/10 10:34:08;;;;;;;2.30;0.98;;;;;;;11.75;78.67;99571.47;5091439;28;20405;-43
2023/04/10 10:36:36;;;;;;;3.63;0.73;;;;;;;11.81;79.33;99569.94;5076971;28;20544;-48
2023/04/10 10:39:44;;;;;;;2.50;0.60;;;;;;;12.10;78.68;99569.81;5071678;28;20055;-44
2023/04/10 10:42:40;;;;;;;5.32;0.98;;;;;;;12.56;77.51;99561.03;5074673;28;20056;-46
2023/04/10 10:45:17;;;;;;;2.67;0.63;;;;;;;13.74;74.46;99564.69;5069444;28;20442;-43
2023/04/10 10:47:48;;;;;;;0.93;0.50;;;;;;;13.82;72.92;99566.28;5090811;28;20370;-43
2023/04/10 10:50:15;;;;;;;1.38;1.00;;;;;;;13.19;73.80;99558.59;5091251;28;20644;-45
2023/04/10 10:52:43;;;;;;;2.63;0.40;;;;;;;12.76;75.84;99554.78;5077592;28;20050;-42
2023/04/10 10:55:35;;;;;;;1.85;0.75;;;;;;;13.32;74.83;99554.28;5091016;28;20542;-44
2023/04/10 10:58:10;;;;;;;1.50;0.70;;;;;;;13.21;74.49;99553.44;5073024;28;20048;-44
2023/04/10 11:00:49;;;;;;;1.98;0.30;;;;;;;12.68;75.42;99546.81;5090155;28;20822;-46
2023/04/10 11:03:16;;;;;;;4.75;0.85;;;;;;;12.26;76.03;99546.56;5067694;28;20055;-41
2023/04/10 11:06:03;;;;;;;3.17;0.50;;;;;;;11.93;76.51;99548.28;5070302;28;20033;-46
2023/04/10 11:08:35;;;;;;;1.75;0.52;;;;;;;11.98;77.39;99536.00;5060362;28;20076;-44
2023/04/10 11:11:04;;;;;;;2.05;0.43;;;;;;;12.13;76.90;99537.72;5070113;28;20037;-44
2023/04/10 11:13:35;;;;;;;11.05;0.68;;;;;;;12.13;76.59;99546.84;5069418;28;20436;-44
2023/04/10 11:16:04;;;;;;;3.55;0.50;;;;;;;12.25;76.66;99542.97;5050474;28;20132;-48
2023/04/10 11:18:43;;;;;;;2.75;0.43;;;;;;;12.37;76.44;99542.66;5070223;28;20074;-43
2023/04/10 11:21:11;;;;;;;1.13;0.63;;;;;;;12.34;76.29;99543.41;5070543;28;20144;-49
2023/04/10 11:23:58;;;;;;;9.98;1.25;;;;;;;12.30;76.62;99542.63;5066893;28;20052;-46
2023/04/10 11:26:43;;;;;;;8.57;1.13;;;;;;;12.27;76.41;99537.81;5065197;28;20143;-46
2023/04/10 11:29:18;;;;;;;1.52;0.60;;;;;;;12.21;76.50;99539.38;5060515;28;20048;-45
2023/04/10 11:31:47;;;;;;;2.45;0.43;;;;;;;12.15;76.35;99529.81;5064727;28;20040;-45
2023/04/10 11:34:14;;;;;;;2.08;0.60;;;;;;;12.33;76.57;99525.19;5068000;28;20048;-44
2023/04/10 11:36:42;;;;;;;2.55;0.60;;;;;;;12.38;75.85;99530.38;5069525;28;20044;-44
2023/04/10 11:39:16;;;;;;;3.50;0.43;;;;;;;12.26;75.75;99536.22;5069903;28;20558;-46
2023/04/10 11:41:51;;;;;;;2.28;0.60;;;;;;;11.97;75.84;99564.91;5069535;28;20498;-42
2023/04/10 11:44:28;;;;;;;3.80;1.00;;;;;;;11.46;76.06;99560.03;5069924;28;20048;-41